createdAt,value
2022-10-17T00:00:43.908Z,4.60
2022-10-17T00:03:10.730Z,4.38
2022-10-17T00:05:41.990Z,4.93
2022-10-17T00:08:10.523Z,4.75
2022-10-17T00:10:37.872Z,5.60
2022-10-17T00:13:04.962Z,5.38
2022-10-17T00:15:32.198Z,4.82
2022-10-17T00:17:59.479Z,5.07
2022-10-17T00:20:26.695Z,4.80
2022-10-17T00:22:53.707Z,5.28
2022-10-17T00:25:20.446Z,5.00
2022-10-17T00:27:47.017Z,5.32
2022-10-17T00:30:15.601Z,5.40
2022-10-17T00:32:42.531Z,5.13
2022-10-17T00:35:09.406Z,4.95
2022-10-17T00:37:36.238Z,4.80
2022-10-17T00:40:03.863Z,4.75
2022-10-17T00:42:30.863Z,4.20
2022-10-17T00:45:03.038Z,4.97
2022-10-17T00:47:30.940Z,4.50
2022-10-17T00:49:58.634Z,4.40
2022-10-17T00:52:29.237Z,4.38
2022-10-17T00:55:00.416Z,4.43
2022-10-17T00:57:31.051Z,4.53
2022-10-17T00:59:59.567Z,4.40
2022-10-17T01:02:26.475Z,4.80
2022-10-17T01:04:56.551Z,3.95
2022-10-17T01:07:23.437Z,4.07
2022-10-17T01:09:50.323Z,4.10
2022-10-17T01:12:26.103Z,5.13
2022-10-17T01:15:08.311Z,3.72
2022-10-17T01:17:43.932Z,4.13
2022-10-17T01:20:47.821Z,3.97
2022-10-17T01:23:42.348Z,4.30
2022-10-17T01:26:24.090Z,4.10
2022-10-17T01:29:09.126Z,3.95
2022-10-17T01:31:47.622Z,3.58
2022-10-17T01:34:25.253Z,4.10
2022-10-17T01:36:58.217Z,3.85
2022-10-17T01:39:34.403Z,3.88
2022-10-17T01:42:23.382Z,4.55
2022-10-17T01:45:22.847Z,4.68
2022-10-17T01:47:52.838Z,4.60
2022-10-17T01:50:49.468Z,4.82
2022-10-17T01:53:29.128Z,4.80
2022-10-17T01:56:00.430Z,4.60
2022-10-17T01:58:32.028Z,4.88
2022-10-17T02:01:03.026Z,5.05
2022-10-17T02:03:30.807Z,5.05
2022-10-17T02:05:57.394Z,4.55
2022-10-17T02:08:51.512Z,4.35
2022-10-17T02:11:21.518Z,4.75
2022-10-17T02:14:15.868Z,5.13
2022-10-17T02:17:05.508Z,4.43
2022-10-17T02:20:01.939Z,4.82
2022-10-17T02:22:37.623Z,4.97
2022-10-17T02:25:21.355Z,5.07
2022-10-17T02:28:16.699Z,4.78
2022-10-17T02:30:55.074Z,4.80
2022-10-17T02:33:29.342Z,4.97
2022-10-17T02:35:59.945Z,4.72
2022-10-17T02:38:29.403Z,4.93
2022-10-17T02:40:56.263Z,4.13
2022-10-17T02:43:23.883Z,4.63
2022-10-17T02:45:52.738Z,4.22
2022-10-17T02:48:19.339Z,3.60
2022-10-17T02:51:20.384Z,4.57
2022-10-17T02:54:22.945Z,4.60
2022-10-17T02:57:01.604Z,4.45
2022-10-17T02:59:31.302Z,4.57
2022-10-17T03:01:58.198Z,4.28
2022-10-17T03:04:24.804Z,4.50
2022-10-17T03:06:51.460Z,4.90
2022-10-17T03:09:18.063Z,5.32
2022-10-17T03:11:44.699Z,4.53
2022-10-17T03:14:11.334Z,5.25
2022-10-17T03:16:37.957Z,4.30
2022-10-17T03:19:05.023Z,4.68
2022-10-17T03:21:31.655Z,4.25
2022-10-17T03:23:58.271Z,4.40
2022-10-17T03:26:25.183Z,4.55
2022-10-17T03:28:53.694Z,4.97
2022-10-17T03:31:21.583Z,5.63
2022-10-17T03:33:48.219Z,4.80
2022-10-17T03:36:16.942Z,4.97
2022-10-17T03:38:44.661Z,4.47
2022-10-17T03:41:11.604Z,4.90
2022-10-17T03:43:39.607Z,4.53
2022-10-17T03:46:07.407Z,4.70
2022-10-17T03:48:34.192Z,4.68
2022-10-17T03:51:03.180Z,4.63
2022-10-17T03:53:29.854Z,4.43
2022-10-17T03:55:57.270Z,4.47
2022-10-17T03:58:23.977Z,4.30
2022-10-17T04:00:50.622Z,5.18
2022-10-17T04:03:17.502Z,4.47
2022-10-17T04:05:44.215Z,4.20
2022-10-17T04:08:10.812Z,4.85
2022-10-17T04:10:37.517Z,4.35
2022-10-17T04:13:04.651Z,4.28
2022-10-17T04:15:31.259Z,4.07
2022-10-17T04:17:57.847Z,4.20
2022-10-17T04:20:24.502Z,3.75
2022-10-17T04:22:51.076Z,4.40
2022-10-17T04:25:17.731Z,4.13
2022-10-17T04:27:44.303Z,4.10
2022-10-17T04:30:11.340Z,4.13
2022-10-17T04:32:41.308Z,3.80
2022-10-17T04:35:08.427Z,4.15
2022-10-17T04:37:35.035Z,4.45
2022-10-17T04:40:01.599Z,4.88
2022-10-17T04:42:29.639Z,4.13
2022-10-17T04:44:56.409Z,5.00
2022-10-17T04:47:23.002Z,5.90
2022-10-17T04:49:49.589Z,4.10
2022-10-17T04:52:16.307Z,4.07
2022-10-17T04:54:42.884Z,3.75
2022-10-17T04:57:09.671Z,3.58
2022-10-17T04:59:36.283Z,3.78
2022-10-17T05:02:03.144Z,4.10
2022-10-17T05:04:29.743Z,3.88
2022-10-17T05:06:56.343Z,3.92
2022-10-17T05:09:22.906Z,3.53
2022-10-17T05:11:49.503Z,3.90
2022-10-17T05:14:16.190Z,4.10
2022-10-17T05:16:42.791Z,3.63
2022-10-17T05:19:09.439Z,4.00
2022-10-17T05:21:37.454Z,3.42
2022-10-17T05:24:08.566Z,3.42
2022-10-17T05:26:35.234Z,3.63
2022-10-17T05:29:05.510Z,3.50
2022-10-17T05:31:32.317Z,4.00
2022-10-17T05:34:02.780Z,3.97
2022-10-17T05:36:29.570Z,4.15
2022-10-17T05:38:56.214Z,3.90
2022-10-17T05:41:22.921Z,3.67
2022-10-17T05:43:50.402Z,4.15
2022-10-17T05:46:17.127Z,4.80
2022-10-17T05:48:43.750Z,4.88
2022-10-17T05:51:11.106Z,5.03
2022-10-17T05:53:40.224Z,4.45
2022-10-17T05:56:08.692Z,4.15
2022-10-17T05:58:49.668Z,3.85
2022-10-17T06:01:18.468Z,3.90
2022-10-17T06:03:45.110Z,3.67
2022-10-17T06:06:13.686Z,3.90
2022-10-17T06:08:40.407Z,4.30
2022-10-17T06:11:09.935Z,3.97
2022-10-17T06:13:38.550Z,4.00
2022-10-17T06:16:05.977Z,4.10
2022-10-17T06:18:32.979Z,3.72
2022-10-17T06:21:07.971Z,3.90
2022-10-17T06:23:34.646Z,3.63
2022-10-17T06:26:03.371Z,3.70
2022-10-17T06:28:30.610Z,3.47
2022-10-17T06:30:57.248Z,3.92
2022-10-17T06:33:23.911Z,5.07
2022-10-17T06:35:55.425Z,3.70
2022-10-17T06:38:22.958Z,3.70
2022-10-17T06:40:49.825Z,3.42
2022-10-17T06:43:16.485Z,3.70
2022-10-17T06:45:43.095Z,4.00
2022-10-17T06:48:09.677Z,3.85
2022-10-17T06:50:36.317Z,3.30
2022-10-17T06:53:03.187Z,4.07
2022-10-17T06:55:31.823Z,4.10
2022-10-17T06:57:58.615Z,4.40
2022-10-17T07:00:26.836Z,4.50
2022-10-17T07:02:53.500Z,4.85
2022-10-17T07:05:20.215Z,4.80
2022-10-17T07:07:48.561Z,4.90
2022-10-17T07:10:17.635Z,5.30
2022-10-17T07:12:45.863Z,4.55
2022-10-17T07:15:13.120Z,4.90
2022-10-17T07:17:39.703Z,5.03
2022-10-17T07:20:06.826Z,5.20
2022-10-17T07:22:33.462Z,4.70
2022-10-17T07:25:00.198Z,4.55
2022-10-17T07:27:27.290Z,4.65
2022-10-17T07:29:54.060Z,4.28
2022-10-17T07:32:20.625Z,4.10
2022-10-17T07:34:47.184Z,4.07
2022-10-17T07:37:13.787Z,4.28
2022-10-17T07:39:40.420Z,3.90
2022-10-17T07:42:07.874Z,4.78
2022-10-17T07:44:35.577Z,4.80
2022-10-17T07:47:02.382Z,5.28
2022-10-17T07:49:29.373Z,5.07
2022-10-17T07:51:56.081Z,5.20
2022-10-17T07:54:22.841Z,5.20
2022-10-17T07:56:50.779Z,5.43
2022-10-17T07:59:20.309Z,4.50
2022-10-17T08:01:47.001Z,5.10
2022-10-17T08:04:13.587Z,6.45
2022-10-17T08:06:40.202Z,6.78
2022-10-17T08:09:06.784Z,6.05
2022-10-17T08:11:33.494Z,7.28
2022-10-17T08:14:00.052Z,6.57
2022-10-17T08:16:26.778Z,5.97
2022-10-17T08:18:53.407Z,7.43
2022-10-17T08:21:20.061Z,7.35
2022-10-17T08:23:46.688Z,7.60
2022-10-17T08:26:16.885Z,7.00
2022-10-17T08:28:43.679Z,8.00
2022-10-17T08:31:13.347Z,8.23
2022-10-17T08:33:41.118Z,8.80
2022-10-17T08:36:09.117Z,7.72
2022-10-17T08:38:37.625Z,6.93
2022-10-17T08:41:13.709Z,7.70
2022-10-17T08:44:05.840Z,7.88
2022-10-17T08:46:36.876Z,8.77
2022-10-17T08:49:12.015Z,7.90
2022-10-17T08:51:48.005Z,7.63
2022-10-17T08:54:20.395Z,6.95
2022-10-17T08:56:50.110Z,8.40
2022-10-17T08:59:27.690Z,7.95
2022-10-17T09:02:28.337Z,9.48
2022-10-17T09:05:26.291Z,11.00
2022-10-17T09:08:16.286Z,11.93
2022-10-17T09:10:57.590Z,13.05
2022-10-17T09:13:29.848Z,12.68
2022-10-17T09:16:14.943Z,12.75
2022-10-17T09:18:46.387Z,15.25
2022-10-17T09:21:47.927Z,14.90
2022-10-17T09:24:53.680Z,15.95
2022-10-17T09:27:20.232Z,15.63
2022-10-17T09:29:50.482Z,17.13
2022-10-17T09:32:21.971Z,20.98
2022-10-17T09:34:48.833Z,21.02
2022-10-17T09:37:17.299Z,20.35
2022-10-17T09:39:45.082Z,20.98
2022-10-17T09:42:15.374Z,22.17
2022-10-17T09:44:47.907Z,21.55
2022-10-17T09:47:43.721Z,20.13
2022-10-17T09:50:25.440Z,26.92
2022-10-17T09:52:53.963Z,23.08
2022-10-17T09:55:26.610Z,23.98
2022-10-17T09:57:59.356Z,21.35
2022-10-17T10:00:32.956Z,24.05
2022-10-17T10:03:21.547Z,20.70
2022-10-17T10:06:12.394Z,19.90
2022-10-17T10:08:52.684Z,21.17
2022-10-17T10:11:24.554Z,23.30
2022-10-17T10:13:52.257Z,22.55
2022-10-17T10:16:31.091Z,21.40
2022-10-17T10:18:57.977Z,21.30
2022-10-17T10:21:26.807Z,23.48
2022-10-17T10:23:59.574Z,22.08
2022-10-17T10:26:30.132Z,22.00
2022-10-17T10:29:07.789Z,22.83
2022-10-17T10:31:40.107Z,23.15
2022-10-17T10:34:18.588Z,23.25
2022-10-17T10:36:47.073Z,18.58
2022-10-17T10:39:47.584Z,21.08
2022-10-17T10:42:28.713Z,21.50
2022-10-17T10:45:00.041Z,20.65
2022-10-17T10:47:32.508Z,21.00
2022-10-17T10:50:20.135Z,19.50
2022-10-17T10:52:52.449Z,21.38
2022-10-17T10:55:40.306Z,24.05
2022-10-17T10:58:33.636Z,24.17
2022-10-17T11:03:33.864Z,21.10
2022-10-17T11:06:23.914Z,24.20
2022-10-17T11:09:04.291Z,22.88
2022-10-17T11:11:34.618Z,23.90
2022-10-17T11:14:13.075Z,23.10
2022-10-17T11:16:47.691Z,21.42
2022-10-17T11:19:25.942Z,23.27
2022-10-17T11:21:55.724Z,21.95
2022-10-17T11:24:29.988Z,22.77
2022-10-17T11:27:00.665Z,19.88
2022-10-17T11:29:36.802Z,20.00
2022-10-17T11:32:09.425Z,18.73
2022-10-17T11:34:42.423Z,20.15
2022-10-17T11:37:20.614Z,19.33
2022-10-17T11:40:21.974Z,20.23
2022-10-17T11:43:00.002Z,18.75
2022-10-17T11:45:31.465Z,20.20
2022-10-17T11:48:06.401Z,20.67
2022-10-17T11:53:43.199Z,17.33
2022-10-17T11:56:11.543Z,16.25
2022-10-17T11:58:55.091Z,18.77
2022-10-17T12:01:35.581Z,16.45
2022-10-17T12:04:05.912Z,15.63
2022-10-17T12:07:10.902Z,20.70
2022-10-17T12:10:15.990Z,19.02
2022-10-17T12:12:43.465Z,19.10
2022-10-17T12:15:27.987Z,17.40
2022-10-17T12:17:55.703Z,17.52
2022-10-17T12:20:25.166Z,16.83
2022-10-17T12:22:53.269Z,21.00
2022-10-17T12:25:30.084Z,19.02
2022-10-17T12:28:30.794Z,16.67
2022-10-17T12:31:10.017Z,19.70
2022-10-17T12:33:58.103Z,17.67
2022-10-17T12:36:28.175Z,17.58
2022-10-17T12:39:03.995Z,17.48
2022-10-17T12:41:39.540Z,16.92
2022-10-17T12:44:36.675Z,17.85
2022-10-17T12:47:06.197Z,18.25
2022-10-17T12:49:49.690Z,18.13
2022-10-17T12:52:27.002Z,16.00
2022-10-17T12:55:11.621Z,16.70
2022-10-17T12:57:42.307Z,15.20
2022-10-17T13:00:14.955Z,16.52
2022-10-17T13:02:42.186Z,15.85
2022-10-17T13:05:16.747Z,17.10
2022-10-17T13:07:48.502Z,13.70
2022-10-17T13:10:24.688Z,13.20
2022-10-17T13:12:58.852Z,10.63
2022-10-17T13:15:25.731Z,10.93
2022-10-17T13:18:01.003Z,10.57
2022-10-17T13:20:31.613Z,10.50
2022-10-17T13:22:59.171Z,10.35
2022-10-17T13:25:27.114Z,13.68
2022-10-17T13:28:06.672Z,11.70
2022-10-17T13:30:35.787Z,11.00
2022-10-17T13:33:03.452Z,10.48
2022-10-17T13:35:59.068Z,11.48
2022-10-17T13:38:29.893Z,12.02
2022-10-17T13:41:05.770Z,11.75
2022-10-17T13:43:38.826Z,10.43
2022-10-17T13:46:32.670Z,10.75
2022-10-17T13:48:53.691Z,10.73
2022-10-17T13:51:20.496Z,9.45
2022-10-17T13:53:47.123Z,11.50
2022-10-17T13:56:27.813Z,12.30
2022-10-17T13:59:05.117Z,10.95
2022-10-17T14:01:32.263Z,11.43
2022-10-17T14:04:20.226Z,11.65
2022-10-17T14:06:49.755Z,11.18
2022-10-17T14:09:27.786Z,12.18
2022-10-17T14:12:06.302Z,10.90
2022-10-17T14:14:51.579Z,11.82
2022-10-17T14:17:30.599Z,12.07
2022-10-17T14:23:10.541Z,13.63
2022-10-17T14:25:39.495Z,11.40
2022-10-17T14:28:12.749Z,12.07
2022-10-17T14:33:30.323Z,11.13
2022-10-17T14:35:59.539Z,12.05
2022-10-17T14:38:27.378Z,10.95
2022-10-17T14:41:09.608Z,11.20
2022-10-17T14:43:44.147Z,11.45
2022-10-17T14:46:16.005Z,10.10
2022-10-17T14:48:43.167Z,10.43
2022-10-17T14:51:16.361Z,10.55
2022-10-17T14:54:21.055Z,10.43
2022-10-17T14:56:53.410Z,10.50
2022-10-17T14:59:51.616Z,9.70
2022-10-17T15:02:11.550Z,9.00
2022-10-17T15:04:38.159Z,9.45
2022-10-17T15:07:05.059Z,8.50
2022-10-17T15:09:31.723Z,9.10
2022-10-17T15:12:07.055Z,9.43
2022-10-17T15:14:33.617Z,8.98
2022-10-17T15:17:00.698Z,8.75
2022-10-17T15:19:27.306Z,8.25
2022-10-17T15:21:53.903Z,7.88
2022-10-17T15:24:20.513Z,9.80
2022-10-17T15:26:47.145Z,8.82
2022-10-17T15:29:16.172Z,8.48
2022-10-17T15:31:42.838Z,8.50
2022-10-17T15:34:09.410Z,9.10
2022-10-17T15:36:50.790Z,9.00
2022-10-17T15:39:17.365Z,8.68
2022-10-17T15:41:44.196Z,9.20
2022-10-17T15:44:11.150Z,9.90
2022-10-17T15:46:40.905Z,9.57
2022-10-17T15:49:12.132Z,9.98
2022-10-17T15:51:39.329Z,10.20
2022-10-17T15:54:06.401Z,9.45
2022-10-17T15:56:42.325Z,10.63
2022-10-17T15:59:17.973Z,9.57
2022-10-17T16:01:45.177Z,9.15
2022-10-17T16:04:14.820Z,10.20
2022-10-17T16:06:44.232Z,10.32
2022-10-17T16:09:11.103Z,10.48
2022-10-17T16:11:40.606Z,10.93
2022-10-17T16:14:11.517Z,11.15
2022-10-17T16:16:38.755Z,10.63
2022-10-17T16:19:05.760Z,12.00
2022-10-17T16:21:35.157Z,11.68
2022-10-17T16:24:02.183Z,9.35
2022-10-17T16:26:29.519Z,9.20
2022-10-17T16:28:58.116Z,8.50
2022-10-17T16:31:31.192Z,8.77
2022-10-17T16:36:25.883Z,8.68
2022-10-17T16:38:54.138Z,8.27
2022-10-17T16:41:22.611Z,9.07
2022-10-17T16:43:50.743Z,8.82
2022-10-17T16:46:18.262Z,9.02
2022-10-17T16:48:45.740Z,8.90
2022-10-17T16:51:13.662Z,8.70
2022-10-17T16:53:43.751Z,8.48
2022-10-17T16:56:21.823Z,8.25
2022-10-17T16:58:49.187Z,9.10
2022-10-17T17:01:18.834Z,8.48
2022-10-17T17:03:47.350Z,8.20
2022-10-17T17:06:16.505Z,9.30
2022-10-17T17:08:43.741Z,9.82
2022-10-17T17:11:13.430Z,9.30
2022-10-17T17:13:40.835Z,9.77
2022-10-17T17:16:09.420Z,8.60
2022-10-17T17:18:36.261Z,9.27
2022-10-17T17:21:04.787Z,9.77
2022-10-17T17:23:33.943Z,8.98
2022-10-17T17:26:04.021Z,9.43
2022-10-17T17:28:32.209Z,10.50
2022-10-17T17:30:58.828Z,10.38
2022-10-17T17:33:26.458Z,10.80
2022-10-17T17:36:00.515Z,10.18
2022-10-17T17:38:31.813Z,10.57
2022-10-17T17:40:58.582Z,10.95
2022-10-17T17:43:25.514Z,10.40
2022-10-17T17:45:52.491Z,9.23
2022-10-17T17:48:19.214Z,11.00
2022-10-17T17:50:46.566Z,11.15
2022-10-17T17:53:16.215Z,11.75
2022-10-17T17:55:42.798Z,11.15
2022-10-17T17:58:09.891Z,11.20
2022-10-17T18:00:36.526Z,10.25
2022-10-17T18:03:03.302Z,10.40
2022-10-17T18:05:30.690Z,11.07
2022-10-17T18:07:57.458Z,10.45
2022-10-17T18:10:24.054Z,10.38
2022-10-17T18:12:50.686Z,10.23
2022-10-17T18:15:17.390Z,10.55
2022-10-17T18:17:44.010Z,10.30
2022-10-17T18:20:11.034Z,9.55
2022-10-17T18:22:37.642Z,9.32
2022-10-17T18:25:05.652Z,9.45
2022-10-17T18:27:32.246Z,10.23
2022-10-17T18:29:58.902Z,10.23
2022-10-17T18:32:25.494Z,11.05
2022-10-17T18:34:52.241Z,9.68
2022-10-17T18:37:18.850Z,9.85
2022-10-17T18:39:51.497Z,10.18
2022-10-17T18:42:18.582Z,10.05
2022-10-17T18:44:46.925Z,9.43
2022-10-17T18:47:13.530Z,10.65
2022-10-17T18:49:40.476Z,10.02
2022-10-17T18:52:07.147Z,9.90
2022-10-17T18:54:34.733Z,11.98
2022-10-17T18:57:01.379Z,11.18
2022-10-17T18:59:27.976Z,11.15
2022-10-17T19:01:54.650Z,12.02
2022-10-17T19:04:21.482Z,12.02
2022-10-17T19:06:48.143Z,13.63
2022-10-17T19:09:15.640Z,13.20
2022-10-17T19:11:42.925Z,11.88
2022-10-17T19:14:14.124Z,12.57
2022-10-17T19:16:45.543Z,13.07
2022-10-17T19:19:12.114Z,11.48
2022-10-17T19:21:39.299Z,12.35
2022-10-17T19:24:10.703Z,11.32
2022-10-17T19:26:38.202Z,12.40
2022-10-17T19:29:05.067Z,10.07
2022-10-17T19:31:32.956Z,10.10
2022-10-17T19:34:00.212Z,10.45
2022-10-17T19:36:32.518Z,10.80
2022-10-17T19:39:04.003Z,10.90
2022-10-17T19:41:31.010Z,10.95
2022-10-17T19:43:58.183Z,11.60
2022-10-17T19:46:26.789Z,10.40
2022-10-17T19:48:53.851Z,11.05
2022-10-17T19:51:24.410Z,10.98
2022-10-17T19:53:52.368Z,11.05
2022-10-17T19:56:20.929Z,10.43
2022-10-17T19:58:48.525Z,10.70
2022-10-17T20:01:17.971Z,11.18
2022-10-17T20:03:44.881Z,10.57
2022-10-17T20:06:12.216Z,10.57
2022-10-17T20:08:39.914Z,10.38
2022-10-17T20:11:15.769Z,10.43
2022-10-17T20:13:43.262Z,9.02
2022-10-17T20:16:14.089Z,8.57
2022-10-17T20:18:41.025Z,9.68
2022-10-17T20:21:10.578Z,10.70
2022-10-17T20:23:37.824Z,11.15
2022-10-17T20:26:25.367Z,10.48
2022-10-17T20:28:53.668Z,10.13
2022-10-17T20:31:20.822Z,10.00
2022-10-17T20:33:47.539Z,9.65
2022-10-17T20:36:14.821Z,9.57
2022-10-17T20:38:41.431Z,10.27
2022-10-17T20:41:09.725Z,10.80
2022-10-17T20:43:38.506Z,9.63
2022-10-17T20:46:22.877Z,10.35
2022-10-17T20:48:58.945Z,9.23
2022-10-17T20:51:26.431Z,9.85
2022-10-17T20:53:53.806Z,8.73
2022-10-17T20:56:24.142Z,7.22
2022-10-17T20:58:56.239Z,7.72
2022-10-17T21:01:24.176Z,6.82
2022-10-17T21:03:51.415Z,6.38
2022-10-17T21:06:18.972Z,6.65
2022-10-17T21:08:46.976Z,5.60
2022-10-17T21:11:22.088Z,5.68
2022-10-17T21:13:57.750Z,5.10
2022-10-17T21:16:25.705Z,4.82
2022-10-17T21:18:52.842Z,5.10
2022-10-17T21:21:40.499Z,4.70
2022-10-17T21:24:14.132Z,5.63
2022-10-17T21:26:42.544Z,6.20
2022-10-17T21:29:10.273Z,5.80
2022-10-17T21:31:39.155Z,5.65
2022-10-17T21:34:12.438Z,5.65
2022-10-17T21:39:05.598Z,5.75
2022-10-17T21:41:32.683Z,5.93
2022-10-17T21:44:20.884Z,5.93
2022-10-17T21:46:48.226Z,4.60
2022-10-17T21:49:18.921Z,5.13
2022-10-17T21:51:47.569Z,5.07
2022-10-17T21:54:15.525Z,5.20
2022-10-17T21:56:43.043Z,5.07
2022-10-17T21:59:09.711Z,4.80
2022-10-17T22:01:39.541Z,4.97
2022-10-17T22:04:08.880Z,5.53
2022-10-17T22:06:40.059Z,5.40
2022-10-17T22:09:11.523Z,4.63
2022-10-17T22:11:38.804Z,5.32
2022-10-17T22:14:08.276Z,5.95
2022-10-17T22:16:35.295Z,5.00
2022-10-17T22:19:06.292Z,4.93
2022-10-17T22:21:35.186Z,4.72
2022-10-17T22:24:04.981Z,5.50
2022-10-17T22:26:33.540Z,4.60
2022-10-17T22:29:00.614Z,4.05
2022-10-17T22:31:27.310Z,4.18
2022-10-17T22:33:53.919Z,4.22
2022-10-17T22:36:20.551Z,3.92
2022-10-17T22:38:47.180Z,4.35
2022-10-17T22:41:13.771Z,4.43
2022-10-17T22:43:40.387Z,4.30
2022-10-17T22:46:08.087Z,4.53
2022-10-17T22:48:35.350Z,4.43
2022-10-17T22:51:02.621Z,4.35
2022-10-17T22:53:30.058Z,4.45
2022-10-17T22:55:59.438Z,4.40
2022-10-17T22:58:27.249Z,3.90
2022-10-17T23:00:54.227Z,4.28
2022-10-17T23:03:21.851Z,4.35
2022-10-17T23:05:49.498Z,4.10
2022-10-17T23:08:17.959Z,4.38
2022-10-17T23:10:45.603Z,4.43
2022-10-17T23:13:12.325Z,4.05
2022-10-17T23:15:39.293Z,4.15
2022-10-17T23:18:06.002Z,4.13
2022-10-17T23:20:32.916Z,4.57
2022-10-17T23:22:59.508Z,4.18
2022-10-17T23:25:26.540Z,3.92
2022-10-17T23:27:53.158Z,4.60
2022-10-17T23:30:19.774Z,4.13
2022-10-17T23:32:46.439Z,4.43
2022-10-17T23:35:13.051Z,3.70
2022-10-17T23:37:39.623Z,3.38
2022-10-17T23:40:06.823Z,3.78
2022-10-17T23:42:33.395Z,3.65
2022-10-17T23:45:00.010Z,3.92
2022-10-17T23:47:26.609Z,4.13
2022-10-17T23:49:53.191Z,3.42
2022-10-17T23:52:19.789Z,3.63
2022-10-17T23:54:46.351Z,3.15
2022-10-17T23:57:12.956Z,3.70
2022-10-17T23:59:39.602Z,3.20
